createdAt,value
2023-01-19T00:01:00.008Z,3.63
2023-01-19T00:03:27.420Z,2.43
2023-01-19T00:05:54.737Z,1.90
2023-01-19T00:08:22.119Z,2.83
2023-01-19T00:10:53.287Z,2.93
2023-01-19T00:13:20.630Z,3.33
2023-01-19T00:15:47.953Z,2.53
2023-01-19T00:18:15.330Z,2.57
2023-01-19T00:20:42.807Z,3.13
2023-01-19T00:23:09.800Z,3.30
2023-01-19T00:25:42.522Z,3.00
2023-01-19T00:28:10.992Z,2.93
2023-01-19T00:30:39.504Z,4.00
2023-01-19T00:33:06.933Z,4.40
2023-01-19T00:35:35.476Z,2.73
2023-01-19T00:38:03.194Z,5.33
2023-01-19T00:40:30.524Z,3.97
2023-01-19T00:42:58.333Z,2.80
2023-01-19T00:45:25.957Z,3.63
2023-01-19T00:47:57.069Z,3.93
2023-01-19T00:50:26.160Z,3.10
2023-01-19T00:52:54.912Z,2.57
2023-01-19T00:55:23.141Z,2.70
2023-01-19T00:57:50.564Z,2.33
2023-01-19T01:00:19.931Z,4.03
2023-01-19T01:02:48.013Z,3.93
2023-01-19T01:05:16.113Z,3.33
2023-01-19T01:07:47.124Z,2.33
2023-01-19T01:10:27.311Z,4.20
2023-01-19T01:12:57.810Z,3.80
2023-01-19T01:15:27.623Z,3.42
2023-01-19T01:17:55.311Z,2.20
2023-01-19T01:20:27.747Z,3.63
2023-01-19T01:22:56.582Z,4.37
2023-01-19T01:25:25.695Z,4.53
2023-01-19T01:27:53.334Z,2.73
2023-01-19T01:30:21.264Z,4.33
2023-01-19T01:32:49.011Z,3.73
2023-01-19T01:35:16.845Z,4.23
2023-01-19T01:37:44.263Z,5.40
2023-01-19T01:40:14.639Z,5.03
2023-01-19T01:42:42.600Z,4.70
2023-01-19T01:45:30.158Z,5.33
2023-01-19T01:48:18.854Z,5.63
2023-01-19T01:51:12.105Z,4.20
2023-01-19T01:53:40.297Z,5.10
2023-01-19T01:56:13.065Z,4.23
2023-01-19T01:58:40.954Z,5.03
2023-01-19T02:01:29.212Z,4.97
2023-01-19T02:03:57.433Z,4.10
2023-01-19T02:06:24.902Z,6.17
2023-01-19T02:09:21.959Z,4.50
2023-01-19T02:12:08.187Z,4.10
2023-01-19T02:14:39.251Z,4.03
2023-01-19T02:17:07.455Z,3.23
2023-01-19T02:19:42.208Z,3.93
2023-01-19T02:22:20.604Z,3.60
2023-01-19T02:24:49.758Z,3.83
2023-01-19T02:27:17.770Z,4.77
2023-01-19T02:29:45.366Z,4.73
2023-01-19T02:32:12.830Z,3.70
2023-01-19T02:34:40.261Z,5.57
2023-01-19T02:37:11.502Z,3.97
2023-01-19T02:39:54.488Z,5.87
2023-01-19T02:42:37.388Z,5.53
2023-01-19T02:45:06.949Z,4.37
2023-01-19T02:47:46.565Z,4.97
2023-01-19T02:50:35.839Z,5.33
2023-01-19T02:53:30.845Z,4.67
2023-01-19T02:56:24.844Z,3.70
2023-01-19T02:59:42.781Z,4.07
2023-01-19T03:03:06.057Z,5.37
2023-01-19T03:08:46.906Z,4.13
2023-01-19T03:11:15.269Z,5.03
2023-01-19T03:14:01.983Z,3.90
2023-01-19T03:16:39.808Z,4.17
2023-01-19T03:19:23.510Z,3.00
2023-01-19T03:21:57.705Z,3.90
2023-01-19T03:24:28.685Z,5.03
2023-01-19T03:27:08.766Z,3.63
2023-01-19T03:29:37.860Z,4.27
2023-01-19T03:32:11.827Z,3.53
2023-01-19T03:34:40.852Z,3.47
2023-01-19T03:37:08.453Z,3.60
2023-01-19T03:39:35.743Z,3.00
2023-01-19T03:42:06.719Z,2.23
2023-01-19T03:44:37.448Z,4.17
2023-01-19T03:47:06.043Z,2.33
2023-01-19T03:49:35.063Z,3.50
2023-01-19T03:52:02.373Z,3.97
2023-01-19T03:54:29.852Z,3.50
2023-01-19T03:56:57.178Z,3.20
2023-01-19T03:59:24.632Z,5.37
2023-01-19T04:01:51.992Z,2.97
2023-01-19T04:04:19.329Z,3.17
2023-01-19T04:06:46.650Z,3.90
2023-01-19T04:09:13.953Z,4.67
2023-01-19T04:11:41.251Z,4.37
2023-01-19T04:14:08.532Z,3.60
2023-01-19T04:16:35.965Z,3.77
2023-01-19T04:19:03.290Z,4.13
2023-01-19T04:21:30.594Z,3.60
2023-01-19T04:23:58.979Z,3.57
2023-01-19T04:26:26.252Z,4.00
2023-01-19T04:28:53.552Z,3.97
2023-01-19T04:31:20.986Z,3.93
2023-01-19T04:33:48.467Z,5.07
2023-01-19T04:36:15.798Z,5.57
2023-01-19T04:38:43.121Z,4.20
2023-01-19T04:41:10.692Z,4.73
2023-01-19T04:43:38.294Z,2.40
2023-01-19T04:46:05.744Z,2.70
2023-01-19T04:48:33.194Z,3.50
2023-01-19T04:51:00.521Z,2.37
2023-01-19T04:53:27.854Z,3.27
2023-01-19T04:55:55.407Z,2.87
2023-01-19T04:58:22.765Z,2.73
2023-01-19T05:00:51.227Z,3.77
2023-01-19T05:03:19.328Z,2.80
2023-01-19T05:05:46.880Z,3.43
2023-01-19T05:08:14.246Z,3.17
2023-01-19T05:10:41.555Z,3.23
2023-01-19T05:13:08.827Z,3.67
2023-01-19T05:15:36.096Z,3.23
2023-01-19T05:18:03.368Z,4.43
2023-01-19T05:20:30.720Z,3.80
2023-01-19T05:22:58.642Z,2.83
2023-01-19T05:25:26.241Z,3.57
2023-01-19T05:27:53.530Z,3.70
2023-01-19T05:30:20.825Z,2.57
2023-01-19T05:32:48.132Z,3.10
2023-01-19T05:35:20.210Z,4.03
2023-01-19T05:37:52.379Z,4.07
2023-01-19T05:40:19.711Z,3.90
2023-01-19T05:42:46.968Z,3.20
2023-01-19T05:45:14.256Z,5.37
2023-01-19T05:47:41.555Z,2.67
2023-01-19T05:50:09.241Z,3.97
2023-01-19T05:52:36.558Z,3.47
2023-01-19T05:55:03.910Z,3.27
2023-01-19T05:57:31.187Z,4.20
2023-01-19T05:59:58.518Z,3.27
2023-01-19T06:02:28.635Z,4.07
2023-01-19T06:04:56.549Z,2.20
2023-01-19T06:07:24.577Z,4.17
2023-01-19T06:09:52.884Z,4.07
2023-01-19T06:12:20.188Z,3.00
2023-01-19T06:14:47.459Z,3.97
2023-01-19T06:17:14.758Z,4.53
2023-01-19T06:19:42.132Z,3.67
2023-01-19T06:22:09.580Z,4.50
2023-01-19T06:24:36.950Z,5.40
2023-01-19T06:27:04.229Z,4.83
2023-01-19T06:29:31.484Z,6.07
2023-01-19T06:31:58.771Z,4.93
2023-01-19T06:34:28.765Z,5.13
2023-01-19T06:36:59.108Z,4.90
2023-01-19T06:39:27.312Z,4.33
2023-01-19T06:41:54.699Z,5.47
2023-01-19T06:44:22.000Z,6.20
2023-01-19T06:46:49.465Z,5.60
2023-01-19T06:49:16.748Z,5.20
2023-01-19T06:51:44.051Z,5.00
2023-01-19T06:54:11.402Z,4.80
2023-01-19T06:56:38.711Z,5.23
2023-01-19T06:59:06.272Z,3.90
2023-01-19T07:01:33.802Z,3.80
2023-01-19T07:04:01.170Z,5.53
2023-01-19T07:06:28.521Z,7.43
2023-01-19T07:08:56.001Z,3.40
2023-01-19T07:11:30.071Z,6.17
2023-01-19T07:14:00.484Z,6.77
2023-01-19T07:16:27.891Z,9.60
2023-01-19T07:18:55.248Z,7.27
2023-01-19T07:21:23.047Z,5.43
2023-01-19T07:23:52.523Z,4.67
2023-01-19T07:26:21.398Z,4.07
2023-01-19T07:28:49.392Z,4.43
2023-01-19T07:31:17.907Z,3.83
2023-01-19T07:33:45.632Z,4.03
2023-01-19T07:36:13.708Z,3.43
2023-01-19T07:38:41.020Z,3.67
2023-01-19T07:41:09.604Z,2.63
2023-01-19T07:43:36.954Z,3.13
2023-01-19T07:46:06.066Z,2.97
2023-01-19T07:48:33.428Z,2.50
2023-01-19T07:51:05.186Z,2.80
2023-01-19T07:53:32.859Z,3.50
2023-01-19T07:56:00.423Z,3.27
2023-01-19T07:58:28.048Z,7.00
2023-01-19T08:00:55.467Z,5.13
2023-01-19T08:03:23.150Z,4.50
2023-01-19T08:05:52.027Z,5.00
2023-01-19T08:08:19.751Z,4.53
2023-01-19T08:10:50.645Z,4.17
2023-01-19T08:13:18.460Z,3.37
2023-01-19T08:15:48.791Z,3.97
2023-01-19T08:18:16.514Z,3.73
2023-01-19T08:20:43.965Z,5.73
2023-01-19T08:23:11.511Z,5.90
2023-01-19T08:25:44.560Z,6.57
2023-01-19T08:28:14.103Z,5.63
2023-01-19T08:30:43.849Z,4.87
2023-01-19T08:33:12.802Z,6.83
2023-01-19T08:35:48.912Z,3.80
2023-01-19T08:38:17.077Z,5.53
2023-01-19T08:40:44.996Z,6.33
2023-01-19T08:43:17.251Z,4.37
2023-01-19T08:45:54.086Z,5.13
2023-01-19T08:48:23.556Z,3.87
2023-01-19T08:50:52.067Z,6.07
2023-01-19T08:53:21.137Z,4.63
2023-01-19T08:55:48.488Z,3.47
2023-01-19T08:58:16.108Z,2.40
2023-01-19T09:00:43.415Z,2.13
2023-01-19T09:03:13.706Z,3.67
2023-01-19T09:05:41.861Z,3.60
2023-01-19T09:08:13.207Z,2.40
2023-01-19T09:10:49.643Z,3.17
2023-01-19T09:13:18.462Z,3.97
2023-01-19T09:15:46.341Z,3.97
2023-01-19T09:18:17.568Z,2.93
2023-01-19T09:20:46.609Z,3.33
2023-01-19T09:23:17.079Z,3.70
2023-01-19T09:25:46.486Z,2.33
2023-01-19T09:28:15.775Z,2.00
2023-01-19T09:30:43.828Z,3.23
2023-01-19T09:33:15.829Z,3.07
2023-01-19T09:35:44.192Z,2.55
2023-01-19T09:38:12.125Z,3.70
2023-01-19T09:40:59.521Z,2.67
2023-01-19T09:43:47.754Z,2.57
2023-01-19T09:46:25.345Z,2.60
2023-01-19T09:48:54.481Z,3.33
2023-01-19T09:51:29.845Z,2.40
2023-01-19T09:54:05.768Z,3.10
2023-01-19T09:56:33.461Z,3.07
2023-01-19T09:59:01.212Z,1.70
2023-01-19T10:01:41.183Z,2.50
2023-01-19T10:04:21.679Z,2.97
2023-01-19T10:06:50.015Z,1.23
2023-01-19T10:09:31.863Z,2.53
2023-01-19T10:12:17.932Z,2.92
2023-01-19T10:15:01.566Z,2.77
2023-01-19T10:20:24.290Z,4.17
2023-01-19T10:22:51.810Z,2.20
2023-01-19T10:25:23.876Z,3.03
2023-01-19T10:27:51.746Z,2.95
2023-01-19T10:30:30.157Z,1.60
2023-01-19T10:32:57.586Z,2.90
2023-01-19T10:35:25.060Z,1.77
2023-01-19T10:37:58.976Z,2.20
2023-01-19T10:40:48.453Z,2.93
2023-01-19T10:43:47.099Z,2.23
2023-01-19T10:46:48.035Z,3.63
2023-01-19T10:49:37.211Z,3.13
2023-01-19T10:52:07.376Z,3.00
2023-01-19T10:54:36.294Z,2.67
2023-01-19T10:57:07.858Z,2.97
2023-01-19T10:59:47.698Z,2.27
2023-01-19T11:02:22.309Z,2.27
2023-01-19T11:04:52.810Z,2.17
2023-01-19T11:07:35.573Z,2.50
2023-01-19T11:10:16.309Z,3.23
2023-01-19T11:13:03.130Z,2.30
2023-01-19T11:15:43.021Z,1.90
2023-01-19T11:18:29.771Z,2.07
2023-01-19T11:21:00.965Z,1.90
2023-01-19T11:23:34.921Z,2.80
2023-01-19T11:26:04.610Z,2.67
2023-01-19T11:28:33.338Z,1.97
2023-01-19T11:31:19.066Z,3.43
2023-01-19T11:33:52.596Z,2.20
2023-01-19T11:36:31.640Z,3.10
2023-01-19T11:39:04.012Z,2.20
2023-01-19T11:44:28.979Z,1.80
2023-01-19T11:47:21.319Z,1.40
2023-01-19T11:50:27.185Z,2.05
2023-01-19T11:53:03.665Z,2.07
2023-01-19T11:55:57.120Z,1.43
2023-01-19T11:58:24.757Z,1.60
2023-01-19T12:00:57.375Z,2.37
2023-01-19T12:03:41.707Z,1.67
2023-01-19T12:06:19.121Z,1.93
2023-01-19T12:08:50.581Z,1.60
2023-01-19T12:11:21.710Z,2.80
2023-01-19T12:13:49.861Z,2.23
2023-01-19T12:16:28.906Z,2.23
2023-01-19T12:19:05.426Z,1.63
2023-01-19T12:21:32.737Z,2.37
2023-01-19T12:24:18.998Z,2.57
2023-01-19T12:26:59.034Z,1.60
2023-01-19T12:29:32.852Z,1.63
2023-01-19T12:32:16.573Z,2.13
2023-01-19T12:34:48.649Z,1.53
2023-01-19T12:37:30.917Z,1.48
2023-01-19T12:40:01.044Z,1.10
2023-01-19T12:42:28.725Z,2.53
2023-01-19T12:45:13.589Z,2.40
2023-01-19T12:47:41.515Z,1.87
2023-01-19T12:50:14.619Z,2.40
2023-01-19T12:52:51.319Z,2.00
2023-01-19T12:55:30.966Z,1.37
2023-01-19T12:58:07.280Z,1.97
2023-01-19T13:00:42.766Z,3.03
2023-01-19T13:03:19.544Z,1.77
2023-01-19T13:05:56.881Z,2.13
2023-01-19T13:08:30.396Z,1.47
2023-01-19T13:11:06.580Z,2.17
2023-01-19T13:13:37.702Z,1.33
2023-01-19T13:16:20.545Z,1.50
2023-01-19T13:18:54.744Z,1.77
2023-01-19T13:21:44.984Z,2.93
2023-01-19T13:24:19.196Z,1.87
2023-01-19T13:26:49.408Z,2.57
2023-01-19T13:29:33.987Z,1.93
2023-01-19T13:32:05.105Z,1.87
2023-01-19T13:34:44.955Z,1.80
2023-01-19T13:37:35.363Z,1.53
2023-01-19T13:40:03.269Z,2.13
2023-01-19T13:42:38.067Z,1.73
2023-01-19T13:45:22.729Z,1.23
2023-01-19T13:47:50.827Z,3.53
2023-01-19T13:50:38.565Z,2.27
2023-01-19T13:53:18.916Z,2.50
2023-01-19T13:55:47.894Z,3.67
2023-01-19T13:58:22.399Z,2.37
2023-01-19T14:00:50.107Z,2.53
2023-01-19T14:03:21.327Z,1.87
2023-01-19T14:05:52.367Z,2.40
2023-01-19T14:08:20.223Z,2.77
2023-01-19T14:11:02.192Z,2.73
2023-01-19T14:13:32.076Z,2.92
2023-01-19T14:16:04.785Z,2.90
2023-01-19T14:18:34.359Z,3.87
2023-01-19T14:21:07.953Z,2.73
2023-01-19T14:23:40.577Z,3.03
2023-01-19T14:26:37.098Z,2.30
2023-01-19T14:29:16.395Z,1.97
2023-01-19T14:32:09.603Z,3.40
2023-01-19T14:35:04.011Z,2.93
2023-01-19T14:37:32.993Z,2.30
2023-01-19T14:40:04.787Z,2.37
2023-01-19T14:42:43.116Z,3.38
2023-01-19T14:45:41.317Z,3.17
2023-01-19T14:48:20.360Z,3.90
2023-01-19T14:51:02.497Z,4.27
2023-01-19T14:53:36.681Z,2.20
2023-01-19T14:56:05.690Z,2.40
2023-01-19T14:58:36.362Z,1.07
2023-01-19T15:01:04.587Z,2.67
2023-01-19T15:03:44.243Z,1.20
2023-01-19T15:06:20.158Z,2.73
2023-01-19T15:08:49.943Z,2.40
2023-01-19T15:11:27.239Z,2.83
2023-01-19T15:13:55.481Z,2.33
2023-01-19T15:16:25.759Z,2.60
2023-01-19T15:18:53.262Z,2.40
2023-01-19T15:21:24.750Z,2.87
2023-01-19T15:23:55.765Z,2.90
2023-01-19T15:26:25.893Z,3.10
2023-01-19T15:28:53.678Z,2.73
2023-01-19T15:31:23.686Z,2.60
2023-01-19T15:33:51.488Z,2.30
2023-01-19T15:36:24.205Z,3.93
2023-01-19T15:38:55.841Z,3.40
2023-01-19T15:41:23.569Z,3.53
2023-01-19T15:43:51.328Z,2.30
2023-01-19T15:46:20.813Z,2.97
2023-01-19T15:48:49.343Z,1.73
2023-01-19T15:51:18.907Z,2.30
2023-01-19T15:53:46.724Z,3.80
2023-01-19T15:56:15.896Z,2.73
2023-01-19T15:58:43.886Z,3.13
2023-01-19T16:01:14.591Z,3.80
2023-01-19T16:03:42.658Z,2.40
2023-01-19T16:06:10.319Z,2.63
2023-01-19T16:08:37.964Z,2.43
2023-01-19T16:11:11.118Z,4.13
2023-01-19T16:13:39.315Z,2.67
2023-01-19T16:16:16.239Z,2.83
2023-01-19T16:18:43.668Z,4.07
2023-01-19T16:21:11.182Z,3.33
2023-01-19T16:23:38.558Z,2.33
2023-01-19T16:26:08.451Z,2.87
2023-01-19T16:28:37.120Z,2.13
2023-01-19T16:31:05.181Z,3.77
2023-01-19T16:33:32.729Z,2.47
2023-01-19T16:36:00.105Z,2.73
2023-01-19T16:38:27.454Z,1.77
2023-01-19T16:40:54.776Z,2.13
2023-01-19T16:43:28.344Z,3.00
2023-01-19T16:46:04.407Z,3.53
2023-01-19T16:48:32.311Z,3.10
2023-01-19T16:51:04.527Z,2.57
2023-01-19T16:53:34.660Z,3.17
2023-01-19T16:56:09.468Z,4.60
2023-01-19T16:58:38.344Z,4.43
2023-01-19T17:01:14.638Z,4.20
2023-01-19T17:03:42.540Z,2.83
2023-01-19T17:06:12.164Z,2.50
2023-01-19T17:08:39.887Z,4.10
2023-01-19T17:11:13.099Z,2.33
2023-01-19T17:13:40.484Z,2.67
2023-01-19T17:16:09.211Z,3.37
2023-01-19T17:18:37.873Z,3.13
2023-01-19T17:21:07.197Z,3.90
2023-01-19T17:23:36.244Z,4.83
2023-01-19T17:26:04.634Z,4.27
2023-01-19T17:28:31.964Z,5.67
2023-01-19T17:31:06.625Z,4.17
2023-01-19T17:33:34.379Z,4.33
2023-01-19T17:36:06.837Z,2.97
2023-01-19T17:38:34.537Z,4.37
2023-01-19T17:41:01.897Z,4.47
2023-01-19T17:43:29.330Z,4.53
2023-01-19T17:45:56.640Z,4.40
2023-01-19T17:48:23.962Z,3.20
2023-01-19T17:50:51.331Z,3.27
2023-01-19T17:53:18.644Z,3.83
2023-01-19T17:55:45.925Z,2.97
2023-01-19T17:58:13.267Z,3.57
2023-01-19T18:00:40.612Z,3.90
2023-01-19T18:03:07.991Z,4.57
2023-01-19T18:05:35.352Z,5.20
2023-01-19T18:08:03.208Z,8.23
2023-01-19T18:10:30.624Z,8.53
2023-01-19T18:12:57.889Z,12.90
2023-01-19T18:15:25.220Z,6.90
2023-01-19T18:17:52.551Z,8.07
2023-01-19T18:20:19.958Z,4.33
2023-01-19T18:22:47.300Z,6.00
2023-01-19T18:25:14.625Z,5.87
2023-01-19T18:27:41.923Z,6.97
2023-01-19T18:30:09.740Z,5.63
2023-01-19T18:32:37.077Z,8.33
2023-01-19T18:35:04.725Z,6.77
2023-01-19T18:37:32.039Z,6.60
2023-01-19T18:40:02.109Z,5.83
2023-01-19T18:42:29.453Z,8.53
2023-01-19T18:44:56.726Z,5.60
2023-01-19T18:47:24.084Z,7.53
2023-01-19T18:49:51.370Z,7.47
2023-01-19T18:52:18.706Z,8.10
2023-01-19T18:54:47.902Z,6.07
2023-01-19T18:57:17.741Z,6.20
2023-01-19T18:59:47.201Z,8.30
2023-01-19T19:02:14.685Z,6.67
2023-01-19T19:04:42.027Z,8.43
2023-01-19T19:07:09.513Z,8.17
2023-01-19T19:09:37.120Z,8.80
2023-01-19T19:12:04.682Z,7.30
2023-01-19T19:14:33.142Z,9.43
2023-01-19T19:17:00.480Z,8.17
2023-01-19T19:19:27.834Z,8.40
2023-01-19T19:21:56.571Z,7.87
2023-01-19T19:24:23.870Z,9.80
2023-01-19T19:26:51.140Z,7.57
2023-01-19T19:29:18.457Z,7.70
2023-01-19T19:31:46.408Z,8.50
2023-01-19T19:34:13.733Z,7.30
2023-01-19T19:36:42.017Z,9.83
2023-01-19T19:39:09.365Z,8.03
2023-01-19T19:41:38.283Z,10.33
2023-01-19T19:44:05.671Z,10.40
2023-01-19T19:46:33.151Z,7.67
2023-01-19T19:49:00.562Z,8.73
2023-01-19T19:51:28.585Z,9.00
2023-01-19T19:54:00.518Z,8.03
2023-01-19T19:56:29.718Z,6.20
2023-01-19T19:58:59.021Z,10.53
2023-01-19T20:01:33.529Z,10.67
2023-01-19T20:04:07.640Z,9.07
2023-01-19T20:06:38.766Z,9.30
2023-01-19T20:09:08.593Z,7.77
2023-01-19T20:11:36.452Z,10.03
2023-01-19T20:14:08.732Z,7.73
2023-01-19T20:19:04.413Z,6.40
2023-01-19T20:21:35.618Z,9.33
2023-01-19T20:24:05.890Z,10.20
2023-01-19T20:26:35.316Z,8.43
2023-01-19T20:29:06.815Z,10.53
2023-01-19T20:31:37.175Z,8.55
2023-01-19T20:34:08.591Z,10.63
2023-01-19T20:36:36.304Z,11.57
2023-01-19T20:39:10.172Z,9.93
2023-01-19T20:41:44.847Z,9.17
2023-01-19T20:44:14.609Z,9.60
2023-01-19T20:46:41.981Z,10.77
2023-01-19T20:49:10.108Z,12.03
2023-01-19T20:51:41.540Z,10.17
2023-01-19T20:54:10.955Z,10.20
2023-01-19T20:56:38.712Z,10.53
2023-01-19T20:59:06.015Z,10.60
2023-01-19T21:01:33.448Z,8.63
2023-01-19T21:04:00.857Z,7.40
2023-01-19T21:06:28.289Z,8.27
2023-01-19T21:08:55.688Z,10.67
2023-01-19T21:11:24.006Z,7.50
2023-01-19T21:13:55.604Z,11.10
2023-01-19T21:16:25.059Z,8.55
2023-01-19T21:18:52.733Z,9.23
2023-01-19T21:21:30.329Z,8.43
2023-01-19T21:24:00.517Z,10.93
2023-01-19T21:26:29.766Z,11.43
2023-01-19T21:28:58.228Z,10.53
2023-01-19T21:31:27.593Z,8.47
2023-01-19T21:33:55.856Z,8.37
2023-01-19T21:36:23.835Z,5.33
2023-01-19T21:38:52.210Z,4.43
2023-01-19T21:41:19.631Z,5.47
2023-01-19T21:43:47.064Z,4.30
2023-01-19T21:46:22.777Z,4.77
2023-01-19T21:48:50.080Z,5.37
2023-01-19T21:51:17.369Z,4.10
2023-01-19T21:53:44.651Z,3.53
2023-01-19T21:56:12.179Z,3.60
2023-01-19T21:58:39.628Z,4.33
2023-01-19T22:01:13.881Z,3.33
2023-01-19T22:03:41.825Z,3.60
2023-01-19T22:06:14.529Z,4.37
2023-01-19T22:08:42.067Z,2.47
2023-01-19T22:11:11.557Z,3.47
2023-01-19T22:13:39.216Z,2.83
2023-01-19T22:16:14.819Z,3.77
2023-01-19T22:18:44.079Z,3.80
2023-01-19T22:21:14.238Z,2.97
2023-01-19T22:23:42.147Z,6.43
2023-01-19T22:26:11.275Z,3.53
2023-01-19T22:28:38.587Z,3.23
2023-01-19T22:31:08.359Z,2.93
2023-01-19T22:33:36.328Z,2.87
2023-01-19T22:36:18.869Z,3.43
2023-01-19T22:38:56.399Z,3.80
2023-01-19T22:41:25.286Z,5.60
2023-01-19T22:43:55.724Z,5.13
2023-01-19T22:46:26.855Z,6.83
2023-01-19T22:48:54.574Z,8.00
2023-01-19T22:51:22.683Z,6.13
2023-01-19T22:53:50.160Z,6.03
2023-01-19T22:56:19.684Z,4.83
2023-01-19T22:58:47.337Z,6.27
2023-01-19T23:01:20.201Z,3.60
2023-01-19T23:03:47.771Z,6.17
2023-01-19T23:06:38.287Z,5.50
2023-01-19T23:09:14.099Z,4.97
2023-01-19T23:11:43.552Z,6.20
2023-01-19T23:14:15.148Z,4.23
2023-01-19T23:16:42.493Z,4.65
2023-01-19T23:19:12.153Z,6.10
2023-01-19T23:21:39.569Z,4.87
2023-01-19T23:24:07.041Z,4.63
2023-01-19T23:26:38.164Z,5.17
2023-01-19T23:29:14.843Z,5.13
2023-01-19T23:31:47.804Z,5.80
2023-01-19T23:34:15.946Z,6.00
2023-01-19T23:36:43.816Z,4.07
2023-01-19T23:39:20.907Z,3.00
2023-01-19T23:41:48.743Z,3.87
2023-01-19T23:44:16.979Z,3.13
2023-01-19T23:46:44.713Z,4.03
2023-01-19T23:49:13.298Z,2.60
2023-01-19T23:51:40.878Z,3.07
2023-01-19T23:54:08.514Z,3.50
2023-01-19T23:56:38.030Z,3.13
2023-01-19T23:59:07.716Z,2.50
